createdAt,value
2019-02-10T00:00:09.405Z,17.70
2019-02-10T00:02:37.645Z,11.13
2019-02-10T00:05:04.200Z,14.27
2019-02-10T00:07:31.062Z,16.20
2019-02-10T00:09:57.446Z,13.73
2019-02-10T00:12:23.778Z,16.23
2019-02-10T00:14:50.208Z,14.07
2019-02-10T00:17:16.594Z,17.10
2019-02-10T00:19:43.045Z,12.93
2019-02-10T00:22:10.512Z,14.50
2019-02-10T00:24:36.858Z,14.23
2019-02-10T00:27:03.437Z,11.03
2019-02-10T00:29:29.787Z,14.67
2019-02-10T00:31:56.166Z,15.67
2019-02-10T00:34:22.520Z,18.73
2019-02-10T00:36:48.931Z,15.87
2019-02-10T00:39:15.291Z,14.20
2019-02-10T00:41:41.724Z,19.57
2019-02-10T00:44:08.188Z,16.53
2019-02-10T00:46:34.526Z,15.03
2019-02-10T00:49:00.901Z,11.20
2019-02-10T00:51:27.276Z,15.43
2019-02-10T00:53:53.616Z,11.97
2019-02-10T00:56:19.997Z,13.87
2019-02-10T00:58:46.407Z,11.17
2019-02-10T01:01:12.854Z,15.73
2019-02-10T01:03:39.208Z,12.97
2019-02-10T01:06:05.568Z,16.03
2019-02-10T01:08:32.015Z,10.53
2019-02-10T01:10:58.442Z,14.57
2019-02-10T01:13:24.839Z,14.43
2019-02-10T01:15:51.168Z,20.43
2019-02-10T01:18:17.527Z,12.03
2019-02-10T01:20:44.532Z,16.03
2019-02-10T01:23:10.891Z,19.47
2019-02-10T01:25:37.236Z,15.53
2019-02-10T01:28:03.655Z,19.93
2019-02-10T01:30:30.025Z,11.50
2019-02-10T01:32:56.372Z,14.33
2019-02-10T01:35:22.762Z,14.10
2019-02-10T01:37:49.229Z,11.13
2019-02-10T01:40:15.694Z,16.77
2019-02-10T01:42:42.060Z,12.87
2019-02-10T01:45:10.713Z,11.10
2019-02-10T01:47:38.193Z,14.03
2019-02-10T01:50:07.176Z,14.73
2019-02-10T01:52:33.550Z,9.73
2019-02-10T01:54:59.931Z,12.10
2019-02-10T01:57:26.271Z,13.57
2019-02-10T01:59:52.628Z,12.10
2019-02-10T02:02:18.979Z,20.00
2019-02-10T02:04:45.383Z,14.33
2019-02-10T02:07:11.767Z,11.70
2019-02-10T02:09:38.131Z,20.93
2019-02-10T02:12:04.919Z,14.50
2019-02-10T02:14:31.275Z,17.50
2019-02-10T02:16:57.597Z,15.20
2019-02-10T02:19:23.984Z,12.17
2019-02-10T02:21:50.331Z,10.03
2019-02-10T02:24:16.686Z,9.80
2019-02-10T02:26:43.090Z,12.03
2019-02-10T02:29:09.493Z,12.80
2019-02-10T02:31:35.887Z,12.67
2019-02-10T02:34:02.305Z,14.03
2019-02-10T02:36:28.733Z,14.73
2019-02-10T02:38:55.109Z,9.43
2019-02-10T02:41:21.554Z,10.93
2019-02-10T02:43:47.978Z,12.60
2019-02-10T02:46:14.349Z,10.47
2019-02-10T02:48:40.683Z,10.53
2019-02-10T02:51:07.068Z,9.23
2019-02-10T02:53:33.455Z,12.07
2019-02-10T02:55:59.823Z,10.00
2019-02-10T02:58:26.367Z,16.30
2019-02-10T03:00:52.696Z,12.27
2019-02-10T03:03:19.125Z,7.60
2019-02-10T03:05:45.453Z,11.87
2019-02-10T03:08:11.835Z,12.70
2019-02-10T03:10:38.173Z,13.70
2019-02-10T03:13:04.544Z,14.00
2019-02-10T03:15:30.992Z,12.93
2019-02-10T03:17:57.422Z,12.90
2019-02-10T03:20:23.793Z,18.93
2019-02-10T03:22:50.141Z,11.37
2019-02-10T03:25:16.583Z,11.00
2019-02-10T03:27:44.070Z,10.37
2019-02-10T03:30:10.933Z,16.73
2019-02-10T03:32:37.282Z,7.50
2019-02-10T03:35:09.835Z,8.33
2019-02-10T03:37:36.201Z,12.13
2019-02-10T03:40:04.541Z,13.70
2019-02-10T03:42:30.935Z,10.03
2019-02-10T03:44:57.309Z,15.43
2019-02-10T03:47:23.673Z,13.27
2019-02-10T03:49:50.109Z,10.63
2019-02-10T03:52:16.565Z,10.33
2019-02-10T03:54:42.950Z,13.73
2019-02-10T03:57:09.441Z,13.87
2019-02-10T03:59:35.768Z,11.20
2019-02-10T04:02:02.229Z,14.97
2019-02-10T04:04:28.665Z,12.93
2019-02-10T04:06:55.068Z,16.53
2019-02-10T04:09:21.456Z,14.07
2019-02-10T04:11:47.776Z,11.87
2019-02-10T04:14:14.203Z,19.73
2019-02-10T04:16:40.535Z,12.50
2019-02-10T04:19:06.911Z,16.73
2019-02-10T04:21:33.227Z,9.83
2019-02-10T04:23:59.669Z,13.27
2019-02-10T04:26:26.020Z,13.97
2019-02-10T04:28:52.419Z,14.37
2019-02-10T04:31:18.818Z,11.33
2019-02-10T04:33:45.140Z,9.83
2019-02-10T04:36:11.523Z,10.03
2019-02-10T04:38:37.877Z,12.23
2019-02-10T04:41:04.240Z,10.77
2019-02-10T04:43:30.572Z,14.50
2019-02-10T04:45:56.957Z,16.33
2019-02-10T04:48:23.315Z,12.93
2019-02-10T04:50:49.648Z,14.37
2019-02-10T04:53:15.982Z,12.43
2019-02-10T04:55:42.337Z,15.50
2019-02-10T04:58:08.735Z,8.13
2019-02-10T05:00:35.108Z,11.13
2019-02-10T05:03:01.460Z,12.97
2019-02-10T05:05:27.802Z,14.93
2019-02-10T05:07:54.815Z,14.57
2019-02-10T05:10:21.789Z,13.53
2019-02-10T05:12:48.340Z,13.67
2019-02-10T05:15:14.745Z,16.20
2019-02-10T05:17:41.126Z,18.00
2019-02-10T05:20:07.544Z,13.80
2019-02-10T05:22:33.888Z,14.43
2019-02-10T05:25:01.345Z,10.30
2019-02-10T05:27:27.782Z,8.47
2019-02-10T05:29:54.125Z,9.23
2019-02-10T05:32:20.512Z,10.67
2019-02-10T05:34:46.897Z,10.43
2019-02-10T05:37:13.278Z,16.40
2019-02-10T05:39:39.722Z,15.73
2019-02-10T05:42:06.049Z,10.17
2019-02-10T05:44:32.437Z,19.90
2019-02-10T05:46:58.811Z,13.97
2019-02-10T05:49:25.193Z,12.17
2019-02-10T05:51:51.554Z,9.53
2019-02-10T05:54:17.952Z,13.00
2019-02-10T05:56:44.293Z,14.93
2019-02-10T05:59:10.674Z,14.07
2019-02-10T06:01:57.333Z,12.97
2019-02-10T06:04:23.666Z,15.20
2019-02-10T06:06:50.810Z,14.20
2019-02-10T06:09:17.208Z,10.97
2019-02-10T06:11:43.526Z,18.33
2019-02-10T06:14:09.909Z,16.93
2019-02-10T06:16:36.234Z,12.87
2019-02-10T06:19:02.623Z,14.33
2019-02-10T06:21:29.076Z,11.47
2019-02-10T06:23:55.453Z,15.93
2019-02-10T06:26:21.822Z,13.90
2019-02-10T06:28:48.512Z,11.67
2019-02-10T06:31:14.909Z,9.10
2019-02-10T06:33:41.206Z,18.77
2019-02-10T06:36:07.589Z,10.53
2019-02-10T06:38:33.917Z,8.50
2019-02-10T06:41:00.310Z,16.67
2019-02-10T06:43:27.124Z,14.37
2019-02-10T06:45:53.486Z,11.10
2019-02-10T06:48:19.908Z,14.77
2019-02-10T06:50:46.332Z,17.07
2019-02-10T06:53:12.790Z,10.33
2019-02-10T06:55:39.183Z,16.60
2019-02-10T06:58:08.613Z,13.73
2019-02-10T07:00:36.958Z,11.70
2019-02-10T07:03:35.414Z,14.20
2019-02-10T07:06:02.179Z,17.63
2019-02-10T07:08:30.728Z,16.13
2019-02-10T07:10:56.739Z,14.20
2019-02-10T07:13:32.466Z,12.83
2019-02-10T07:16:31.316Z,12.10
2019-02-10T07:19:19.179Z,19.17
2019-02-10T07:21:45.883Z,10.97
2019-02-10T07:24:32.840Z,13.73
2019-02-10T07:27:08.881Z,12.20
2019-02-10T07:30:03.039Z,12.27
2019-02-10T07:32:32.257Z,12.07
2019-02-10T07:35:25.207Z,22.13
2019-02-10T07:38:01.232Z,13.97
2019-02-10T07:40:34.223Z,13.07
2019-02-10T07:43:13.540Z,15.83
2019-02-10T07:45:44.722Z,10.20
2019-02-10T07:48:17.818Z,21.50
2019-02-10T07:50:51.371Z,15.83
2019-02-10T07:53:24.417Z,14.47
2019-02-10T07:55:57.127Z,13.70
2019-02-10T07:58:45.567Z,11.93
2019-02-10T08:01:18.756Z,15.90
2019-02-10T08:04:06.772Z,11.30
2019-02-10T08:06:48.565Z,14.90
2019-02-10T08:09:30.329Z,17.13
2019-02-10T08:12:05.962Z,10.93
2019-02-10T08:14:45.105Z,18.20
2019-02-10T08:17:27.455Z,18.80
2019-02-10T08:20:03.466Z,10.70
2019-02-10T08:22:45.627Z,16.57
2019-02-10T08:25:27.941Z,17.70
2019-02-10T08:28:12.969Z,18.57
2019-02-10T08:30:43.137Z,21.37
2019-02-10T08:33:25.563Z,15.87
2019-02-10T08:36:12.919Z,12.17
2019-02-10T08:38:55.399Z,13.73
2019-02-10T08:41:28.491Z,19.67
2019-02-10T08:44:14.444Z,18.47
2019-02-10T08:46:59.268Z,17.27
2019-02-10T08:49:41.184Z,21.93
2019-02-10T08:52:11.427Z,21.50
2019-02-10T08:54:37.824Z,16.80
2019-02-10T08:57:04.228Z,18.43
2019-02-10T08:59:30.919Z,16.40
2019-02-10T09:01:57.394Z,17.73
2019-02-10T09:04:23.971Z,16.83
2019-02-10T09:06:51.432Z,13.50
2019-02-10T09:09:17.895Z,20.47
2019-02-10T09:11:44.693Z,18.90
2019-02-10T09:14:11.033Z,17.60
2019-02-10T09:16:37.403Z,19.07
2019-02-10T09:19:04.817Z,16.23
2019-02-10T09:21:31.223Z,12.40
2019-02-10T09:23:57.669Z,11.83
2019-02-10T09:26:24.106Z,15.23
2019-02-10T09:28:50.488Z,13.10
2019-02-10T09:31:16.831Z,16.10
2019-02-10T09:33:43.274Z,14.13
2019-02-10T09:36:09.685Z,19.03
2019-02-10T09:38:36.146Z,14.37
2019-02-10T09:41:02.544Z,16.93
2019-02-10T09:43:28.951Z,18.87
2019-02-10T09:45:55.348Z,19.90
2019-02-10T09:48:21.774Z,17.67
2019-02-10T09:50:48.161Z,15.10
2019-02-10T09:53:14.559Z,37.57
2019-02-10T09:55:40.897Z,21.67
2019-02-10T09:58:07.282Z,20.23
2019-02-10T10:00:34.299Z,20.70
2019-02-10T10:03:00.819Z,16.37
2019-02-10T10:05:27.235Z,20.43
2019-02-10T10:07:53.632Z,22.00
2019-02-10T10:10:20.020Z,19.33
2019-02-10T10:12:46.429Z,28.50
2019-02-10T10:15:14.974Z,23.97
2019-02-10T10:17:41.450Z,17.83
2019-02-10T10:20:13.707Z,19.87
2019-02-10T10:22:40.075Z,22.13
2019-02-10T10:25:07.880Z,20.67
2019-02-10T10:27:34.245Z,42.27
2019-02-10T10:30:00.682Z,24.63
2019-02-10T10:32:27.082Z,31.77
2019-02-10T10:34:53.495Z,15.43
2019-02-10T10:37:19.838Z,24.80
2019-02-10T10:39:46.287Z,17.93
2019-02-10T10:42:12.634Z,20.40
2019-02-10T10:44:39.072Z,26.00
2019-02-10T10:47:05.415Z,16.13
2019-02-10T10:49:31.793Z,26.73
2019-02-10T10:51:58.170Z,24.97
2019-02-10T10:54:24.593Z,20.57
2019-02-10T10:56:50.928Z,18.13
2019-02-10T10:59:17.311Z,20.13
2019-02-10T11:01:44.269Z,24.33
2019-02-10T11:04:10.584Z,22.27
2019-02-10T11:06:36.951Z,24.77
2019-02-10T11:09:04.528Z,20.70
2019-02-10T11:11:31.890Z,20.33
2019-02-10T11:13:58.274Z,22.33
2019-02-10T11:16:24.731Z,19.20
2019-02-10T11:18:51.086Z,21.47
2019-02-10T11:21:17.526Z,19.07
2019-02-10T11:23:43.915Z,28.20
2019-02-10T11:26:11.424Z,21.13
2019-02-10T11:28:38.133Z,18.87
2019-02-10T11:31:04.809Z,21.13
2019-02-10T11:33:31.244Z,18.53
2019-02-10T11:35:57.697Z,22.23
2019-02-10T11:38:24.126Z,24.87
2019-02-10T11:40:50.560Z,24.73
2019-02-10T11:43:17.062Z,21.57
2019-02-10T11:45:43.574Z,28.67
2019-02-10T11:48:09.984Z,19.43
2019-02-10T11:50:36.332Z,23.47
2019-02-10T11:53:03.000Z,27.53
2019-02-10T11:55:29.391Z,23.20
2019-02-10T11:57:55.869Z,31.03
2019-02-10T12:00:22.346Z,37.67
2019-02-10T12:02:48.821Z,26.53
2019-02-10T12:05:15.230Z,26.40
2019-02-10T12:07:42.688Z,24.43
2019-02-10T12:10:12.634Z,23.90
2019-02-10T12:12:39.075Z,24.70
2019-02-10T12:15:11.139Z,19.57
2019-02-10T12:17:37.592Z,26.90
2019-02-10T12:20:07.181Z,25.90
2019-02-10T12:22:33.565Z,21.97
2019-02-10T12:25:00.975Z,20.57
2019-02-10T12:27:27.445Z,28.37
2019-02-10T12:29:54.123Z,20.87
2019-02-10T12:32:20.683Z,31.63
2019-02-10T12:34:47.104Z,30.83
2019-02-10T12:37:13.478Z,25.80
2019-02-10T12:39:39.849Z,26.03
2019-02-10T12:42:06.258Z,29.37
2019-02-10T12:44:32.652Z,30.40
2019-02-10T12:46:59.056Z,24.97
2019-02-10T12:49:25.476Z,26.70
2019-02-10T12:51:51.884Z,29.57
2019-02-10T12:54:18.278Z,32.60
2019-02-10T12:56:44.683Z,28.63
2019-02-10T12:59:11.073Z,27.80
2019-02-10T13:01:37.444Z,29.53
2019-02-10T13:04:03.867Z,43.07
2019-02-10T13:06:30.253Z,31.57
2019-02-10T13:08:56.645Z,32.40
2019-02-10T13:11:23.072Z,29.80
2019-02-10T13:13:49.561Z,26.17
2019-02-10T13:16:15.918Z,28.83
2019-02-10T13:18:42.381Z,35.13
2019-02-10T13:21:08.847Z,30.97
2019-02-10T13:23:35.329Z,37.47
2019-02-10T13:26:01.780Z,32.77
2019-02-10T13:28:28.273Z,29.07
2019-02-10T13:30:54.899Z,36.47
2019-02-10T13:33:21.381Z,31.77
2019-02-10T13:35:47.795Z,30.10
2019-02-10T13:38:14.308Z,34.33
2019-02-10T13:40:40.725Z,36.67
2019-02-10T13:43:07.176Z,30.90
2019-02-10T13:45:33.542Z,32.77
2019-02-10T13:47:59.963Z,32.30
2019-02-10T13:50:26.295Z,36.83
2019-02-10T13:52:52.695Z,33.60
2019-02-10T13:55:19.082Z,31.90
2019-02-10T13:57:45.621Z,34.20
2019-02-10T14:00:21.870Z,29.17
2019-02-10T14:02:48.271Z,38.70
2019-02-10T14:05:14.648Z,38.83
2019-02-10T14:07:41.021Z,25.30
2019-02-10T14:10:14.920Z,27.97
2019-02-10T14:12:42.783Z,30.40
2019-02-10T14:15:14.169Z,38.10
2019-02-10T14:17:40.594Z,37.60
2019-02-10T14:20:15.667Z,36.57
2019-02-10T14:22:42.063Z,31.47
2019-02-10T14:25:08.621Z,31.63
2019-02-10T14:27:35.024Z,29.83
2019-02-10T14:30:01.520Z,34.27
2019-02-10T14:32:27.998Z,28.90
2019-02-10T14:34:54.673Z,33.07
2019-02-10T14:37:21.048Z,33.93
2019-02-10T14:39:47.666Z,29.27
2019-02-10T14:42:14.128Z,38.67
2019-02-10T14:44:40.616Z,36.20
2019-02-10T14:47:07.019Z,32.50
2019-02-10T14:49:33.532Z,35.77
2019-02-10T14:51:59.909Z,41.80
2019-02-10T14:54:26.362Z,33.13
2019-02-10T14:56:53.043Z,38.83
2019-02-10T14:59:19.561Z,35.07
2019-02-10T15:01:46.012Z,34.37
2019-02-10T15:04:12.387Z,31.37
2019-02-10T15:06:38.806Z,42.00
2019-02-10T15:09:07.117Z,35.80
2019-02-10T15:11:35.464Z,36.20
2019-02-10T15:14:01.895Z,39.57
2019-02-10T15:16:28.731Z,45.60
2019-02-10T15:18:55.386Z,38.07
2019-02-10T15:21:22.043Z,39.37
2019-02-10T15:23:48.647Z,38.03
2019-02-10T15:26:15.114Z,35.70
2019-02-10T15:28:43.545Z,36.50
2019-02-10T15:31:10.217Z,33.97
2019-02-10T15:33:36.986Z,39.63
2019-02-10T15:36:03.493Z,35.90
2019-02-10T15:38:29.872Z,41.60
2019-02-10T15:40:56.273Z,42.27
2019-02-10T15:43:38.312Z,38.47
2019-02-10T15:46:05.827Z,42.80
2019-02-10T15:48:32.263Z,41.63
2019-02-10T15:50:58.630Z,45.07
2019-02-10T15:53:25.091Z,45.77
2019-02-10T15:55:52.605Z,39.83
2019-02-10T15:58:19.408Z,45.93
2019-02-10T16:00:46.606Z,43.67
2019-02-10T16:03:13.103Z,44.87
2019-02-10T16:05:39.517Z,46.67
2019-02-10T16:08:11.026Z,47.77
2019-02-10T16:10:43.506Z,48.30
2019-02-10T16:13:23.876Z,53.53
2019-02-10T16:16:01.576Z,56.17
2019-02-10T16:18:28.160Z,52.47
2019-02-10T16:20:56.348Z,53.37
2019-02-10T16:23:22.709Z,55.63
2019-02-10T16:25:50.200Z,48.67
2019-02-10T16:28:21.789Z,49.83
2019-02-10T16:30:48.334Z,51.77
2019-02-10T16:33:14.785Z,45.77
2019-02-10T16:35:41.602Z,52.57
2019-02-10T16:38:08.632Z,69.27
2019-02-10T16:40:35.195Z,66.30
2019-02-10T16:43:02.532Z,55.23
2019-02-10T16:45:29.565Z,61.67
2019-02-10T16:47:56.085Z,64.87
2019-02-10T16:50:23.619Z,57.17
2019-02-10T16:52:50.751Z,63.37
2019-02-10T16:55:21.347Z,64.37
2019-02-10T16:57:47.861Z,60.60
2019-02-10T17:00:15.610Z,50.17
2019-02-10T17:02:42.404Z,52.17
2019-02-10T17:05:09.614Z,48.17
2019-02-10T17:07:36.272Z,62.77
2019-02-10T17:10:05.576Z,53.73
2019-02-10T17:12:32.227Z,51.40
2019-02-10T17:14:58.731Z,55.87
2019-02-10T17:17:25.160Z,52.37
2019-02-10T17:19:51.567Z,60.07
2019-02-10T17:22:18.454Z,61.17
2019-02-10T17:24:45.045Z,64.40
2019-02-10T17:27:11.425Z,65.83
2019-02-10T17:29:37.893Z,55.80
2019-02-10T17:32:04.645Z,54.27
2019-02-10T17:34:31.085Z,66.13
2019-02-10T17:36:57.629Z,61.33
2019-02-10T17:39:24.003Z,62.37
2019-02-10T17:41:50.403Z,62.17
2019-02-10T17:44:16.854Z,59.40
2019-02-10T17:46:43.233Z,58.53
2019-02-10T17:49:09.734Z,69.67
2019-02-10T17:51:36.068Z,80.43
2019-02-10T17:54:02.552Z,66.90
2019-02-10T17:56:28.978Z,64.00
2019-02-10T17:58:55.429Z,67.70
2019-02-10T18:01:21.857Z,64.00
2019-02-10T18:03:48.264Z,67.00
2019-02-10T18:06:15.012Z,60.43
2019-02-10T18:08:42.864Z,68.47
2019-02-10T18:11:09.417Z,59.23
2019-02-10T18:13:36.122Z,66.43
2019-02-10T18:16:20.144Z,63.77
2019-02-10T18:19:03.439Z,59.37
2019-02-10T18:21:46.714Z,66.17
2019-02-10T18:24:18.197Z,69.50
2019-02-10T18:26:58.772Z,65.93
2019-02-10T18:29:44.039Z,68.17
2019-02-10T18:32:15.853Z,68.03
2019-02-10T18:34:47.014Z,66.43
2019-02-10T18:37:33.912Z,75.57
2019-02-10T18:40:05.257Z,72.73
2019-02-10T18:42:50.047Z,80.90
2019-02-10T18:45:22.275Z,74.53
2019-02-10T18:48:00.008Z,78.30
2019-02-10T18:50:28.362Z,72.37
2019-02-10T18:52:58.766Z,73.67
2019-02-10T18:55:27.111Z,83.87
2019-02-10T18:57:55.677Z,97.17
2019-02-10T19:00:29.906Z,86.50
2019-02-10T19:02:58.513Z,84.70
2019-02-10T19:05:33.366Z,86.63
2019-02-10T19:08:01.927Z,99.97
2019-02-10T19:10:36.596Z,88.90
2019-02-10T19:13:04.881Z,100.87
2019-02-10T19:15:33.450Z,92.77
2019-02-10T19:18:01.702Z,92.40
2019-02-10T19:20:39.132Z,97.03
2019-02-10T19:23:11.396Z,93.43
2019-02-10T19:25:45.840Z,97.13
2019-02-10T19:28:26.178Z,90.23
2019-02-10T19:30:57.308Z,90.67
2019-02-10T19:33:41.083Z,90.93
2019-02-10T19:36:12.144Z,82.33
2019-02-10T19:38:40.592Z,90.67
2019-02-10T19:41:20.431Z,88.03
2019-02-10T19:43:48.727Z,87.40
2019-02-10T19:46:32.258Z,93.63
2019-02-10T19:49:09.322Z,93.97
2019-02-10T19:51:40.380Z,94.27
2019-02-10T19:54:11.181Z,85.50
2019-02-10T19:56:41.549Z,93.40
2019-02-10T19:59:27.176Z,98.67
2019-02-10T20:02:14.054Z,89.83
2019-02-10T20:04:57.943Z,106.97
2019-02-10T20:07:35.411Z,99.13
2019-02-10T20:10:15.475Z,101.10
2019-02-10T20:12:43.778Z,97.30
2019-02-10T20:15:26.047Z,103.83
2019-02-10T20:18:03.628Z,116.07
2019-02-10T20:20:37.155Z,112.10
2019-02-10T20:23:10.492Z,106.83
2019-02-10T20:25:44.842Z,99.97
2019-02-10T20:28:13.783Z,108.33
2019-02-10T20:30:44.531Z,107.63
2019-02-10T20:33:17.223Z,113.70
2019-02-10T20:36:00.847Z,108.90
2019-02-10T20:38:45.976Z,110.57
2019-02-10T20:41:14.415Z,109.57
2019-02-10T20:43:43.074Z,113.77
2019-02-10T20:49:29.861Z,113.23
2019-02-10T20:52:02.343Z,118.50
2019-02-10T20:54:30.826Z,114.03
2019-02-10T20:57:04.255Z,113.03
2019-02-10T20:59:44.767Z,102.97
2019-02-10T21:02:16.657Z,96.30
2019-02-10T21:04:50.205Z,115.30
2019-02-10T21:07:37.052Z,99.20
2019-02-10T21:10:07.472Z,108.63
2019-02-10T21:12:52.972Z,108.80
2019-02-10T21:15:38.612Z,103.50
2019-02-10T21:18:15.977Z,103.20
2019-02-10T21:20:51.124Z,112.97
2019-02-10T21:23:22.514Z,108.63
2019-02-10T21:26:06.169Z,109.43
2019-02-10T21:28:41.416Z,105.70
2019-02-10T21:31:14.852Z,96.50
2019-02-10T21:34:02.309Z,98.83
2019-02-10T21:36:33.598Z,105.97
2019-02-10T21:39:19.013Z,108.90
2019-02-10T21:42:04.444Z,104.20
2019-02-10T21:44:36.263Z,108.13
2019-02-10T21:47:04.738Z,101.60
2019-02-10T21:49:31.899Z,124.77
2019-02-10T21:51:59.562Z,107.27
2019-02-10T21:54:26.016Z,111.87
2019-02-10T21:56:52.475Z,103.00
2019-02-10T21:59:21.589Z,99.57
2019-02-10T22:01:48.383Z,104.97
2019-02-10T22:04:14.822Z,104.43
2019-02-10T22:06:41.156Z,97.97
2019-02-10T22:09:08.866Z,93.10
2019-02-10T22:11:35.619Z,99.23
2019-02-10T22:14:02.055Z,91.90
2019-02-10T22:16:28.433Z,94.13
2019-02-10T22:18:55.819Z,95.97
2019-02-10T22:21:22.193Z,97.30
2019-02-10T22:23:48.694Z,88.77
2019-02-10T22:26:15.064Z,100.30
2019-02-10T22:28:41.811Z,98.90
2019-02-10T22:31:08.204Z,97.73
2019-02-10T22:33:34.911Z,91.90
2019-02-10T22:36:01.467Z,89.13
2019-02-10T22:38:27.961Z,86.90
2019-02-10T22:40:54.559Z,86.17
2019-02-10T22:43:20.899Z,83.73
2019-02-10T22:45:47.336Z,74.87
2019-02-10T22:48:13.757Z,81.77
2019-02-10T22:50:40.113Z,78.23
2019-02-10T22:53:06.556Z,74.90
2019-02-10T22:55:32.926Z,68.90
2019-02-10T22:57:59.295Z,77.43
2019-02-10T23:00:48.631Z,72.67
2019-02-10T23:03:15.427Z,69.13
2019-02-10T23:05:42.851Z,70.60
2019-02-10T23:08:09.203Z,75.97
2019-02-10T23:10:35.730Z,66.93
2019-02-10T23:13:02.237Z,64.40
2019-02-10T23:15:28.700Z,69.20
2019-02-10T23:17:55.124Z,71.43
2019-02-10T23:20:21.509Z,59.47
2019-02-10T23:22:47.895Z,65.37
2019-02-10T23:25:14.453Z,63.47
2019-02-10T23:27:41.088Z,66.50
2019-02-10T23:30:07.818Z,60.53
2019-02-10T23:32:34.148Z,67.30
2019-02-10T23:35:00.619Z,66.73
2019-02-10T23:37:27.025Z,69.50
2019-02-10T23:39:53.515Z,61.63
2019-02-10T23:42:19.878Z,63.17
2019-02-10T23:44:46.343Z,60.47
2019-02-10T23:47:12.798Z,62.33
2019-02-10T23:49:39.402Z,61.97
2019-02-10T23:52:05.837Z,59.17
2019-02-10T23:54:32.312Z,61.37
2019-02-10T23:56:58.832Z,67.97
2019-02-10T23:59:26.213Z,66.93
